aviador You're here:

KAWM Decoded Metar

W MEMPHIS MUNI in AR, USA
Report Time2017-08-22 02:53:00
UTC Time2017-08-22 03:21:34
Flight Rules vfr VFR
Wind190° at 06 kt
W.Decomp.*RWY 17: 5.7 kt HW 2.0 kt RCW
W.Rank190° ranks 1
Current wind is below 190° avg. (8.9)
Visibility9999 m
Phenomena:N/A
Clouds:N/A
Expected CloudBase > 1,200 ft AGL from Temp-Dew spread
CeilingNone
Temp27°C (ISA +12)
Dew Point24°C (84% RH)
Heat Index30.1°C
QNH1019 hPa
Density Alt1,837 ft
Elevation213 ft
Report Wrong Elevation
Raw Report
KAWM 220253Z AUTO 19006KT 10SM CLR 27/24 A3008 RMK AO2 SLP181
T02670244 51016=

Extra information for KAWM:More info

Metar Taf Metar & Taf Last 4 Metars F.Rules Stats Wind Profile Meteogram Temp Stats Airport Information Weather charts Add Link Nearby VenuesMetar ALERT Operation Metar Decoded Social comments

AIRNAV info for KAWM